クライストチャーチ の空港の天気 - METARとTAF

クライストチャーチ国際空港 ( NZCH / CHC ) - ニュージーランド クライストチャーチ
飛行場実況気象(Metar)
観測時間04/27 04:30 NZST (04/26 16:30 UTC)
風向・風速東北東 3m/s
視程10km以上
天気現象
なし
気温16℃
湿度63%
気圧1002hPa
METARNZCH 261630Z AUTO 07006KT 030V100 9999 NCD 16/09 Q1002 NOSIG
過去の天気等 Google飛行場航空写真 Wunderground天気予報

過去48時間のMETAR

飛行場予報(TAF)
発表時間: 4/27 02:42 NZST (4/26 14:42 UTC)
予報対象時間: 27日2時 NZST ~ 28日0時 NZST
風向・風速東北東 3m/s
視程10km以上
少しの雲 雲底高度 240m
27日9時 NZST ~ 27日11時 NZST に徐々に
風向・風速北 6m/s
27日14時 NZST から
風向・風速北北西 8m/s 瞬間風速 15m/s
視程10km以上
天気現象弱い雨
全天の8割程度の雲 雲底高度 1830m
27日17時 NZST から
風向・風速北北西 4m/s
視程10km以上
全天の4割程度の雲 雲底高度 1520m
TAF AMD NZCH 261442Z 2614/2712 06005KT 9999 FEW008
BECMG 2621/2623 36012KT
FM270200 34015G30KT 9999 -RA BKN060
FM270500 34008KT 9999 SCT050